Skip Navigation Links Skip Navigation Links

Current Weather

Martin State, Baltimore

For information only: do not use for flight planning or navigation.
Latest weather
Observation time Wednesday, December 2, 2020 9:45 PM EST
Local time Wednesday, December 2, 2020 10:17 PM EST
Flight conditions Visual Meteorological Conditions
Winds
Wind direction West (270°)
Wind speed 10 mph
Visibility 10 mi.
Sky condition
Ceiling unlimited
Sky clear
Temperature 41°F
Dewpoint 23°F
Altimeter 30.23 in.Hg
Derived measurements
Relative humidity 48%
Wind chill 35°F
Density altitude -1472 ft.
METAR KMTN 030245Z 27009KT 10SM CLR 05/M05 A3023

Settings

Location code

InnerDrive.Weather 4.0.6770.0 Release CLR 4.0.30319.42000
Copyright ©2018 Inner Drive Technology. All rights reserved. Portions Copyright ©1986-2018 David Braverman.

Find weather

Site navigation


Skip Navigation Links

Place info

Page info

PayPal - The safer, easier way to pay online!

Return home.

Copyright ©2020 Inner Drive Technology. Purveyors of fine, hand-crafted computer software. Page printed 2020-12-03T03:17:24 UTC.